createdAt,value
2018-08-17T00:01:58.443Z,16.20
2018-08-17T00:04:26.750Z,16.20
2018-08-17T00:06:55.084Z,16.10
2018-08-17T00:09:23.419Z,16.10
2018-08-17T00:11:51.732Z,16.00
2018-08-17T00:14:20.070Z,15.80
2018-08-17T00:16:48.418Z,15.60
2018-08-17T00:19:16.728Z,15.60
2018-08-17T00:21:45.041Z,15.40
2018-08-17T00:24:13.388Z,15.20
2018-08-17T00:26:41.701Z,15.30
2018-08-17T00:29:10.042Z,15.30
2018-08-17T00:31:38.342Z,15.40
2018-08-17T00:34:06.972Z,15.40
2018-08-17T00:36:35.297Z,15.50
2018-08-17T00:39:10.010Z,15.50
2018-08-17T00:41:39.071Z,15.60
2018-08-17T00:44:07.499Z,15.60
2018-08-17T00:46:35.795Z,15.70
2018-08-17T00:49:04.205Z,15.70
2018-08-17T00:51:32.508Z,15.60
2018-08-17T00:54:00.855Z,15.50
2018-08-17T00:56:29.197Z,15.50
2018-08-17T00:58:57.493Z,15.50
2018-08-17T01:01:27.089Z,15.50
2018-08-17T01:03:55.395Z,15.50
2018-08-17T01:06:23.701Z,15.40
2018-08-17T01:08:52.004Z,15.50
2018-08-17T01:11:20.307Z,15.50
2018-08-17T01:13:48.598Z,15.60
2018-08-17T01:16:16.904Z,15.60
2018-08-17T01:18:45.258Z,15.60
2018-08-17T01:21:13.568Z,15.50
2018-08-17T01:23:41.896Z,15.50
2018-08-17T01:26:10.231Z,15.40
2018-08-17T01:28:38.560Z,15.30
2018-08-17T01:31:06.901Z,15.20
2018-08-17T01:33:35.220Z,15.00
2018-08-17T01:36:03.568Z,15.00
2018-08-17T01:38:31.964Z,15.00
2018-08-17T01:41:00.314Z,15.00
2018-08-17T01:43:28.690Z,14.90
2018-08-17T01:45:57.008Z,14.90
2018-08-17T01:48:25.344Z,14.70
2018-08-17T01:50:53.661Z,14.90
2018-08-17T01:53:21.951Z,14.90
2018-08-17T01:55:50.248Z,14.80
2018-08-17T01:58:18.557Z,14.80
2018-08-17T02:00:46.841Z,14.70
2018-08-17T02:03:15.156Z,14.70
2018-08-17T02:05:43.440Z,14.60
2018-08-17T02:08:12.662Z,14.60
2018-08-17T02:10:41.019Z,14.60
2018-08-17T02:13:09.312Z,14.60
2018-08-17T02:15:37.693Z,14.50
2018-08-17T02:18:06.168Z,14.60
2018-08-17T02:20:34.545Z,14.50
2018-08-17T02:23:02.912Z,14.50
2018-08-17T02:25:31.567Z,14.40
2018-08-17T02:27:59.886Z,14.40
2018-08-17T02:30:28.622Z,14.20
2018-08-17T02:32:57.008Z,14.30
2018-08-17T02:35:25.364Z,14.20
2018-08-17T02:37:53.744Z,14.10
2018-08-17T02:40:22.096Z,14.10
2018-08-17T02:42:50.401Z,14.10
2018-08-17T02:45:18.679Z,14.10
2018-08-17T02:47:47.033Z,14.00
2018-08-17T02:50:15.327Z,14.00
2018-08-17T02:52:43.669Z,14.00
2018-08-17T02:55:11.992Z,14.00
2018-08-17T02:57:40.323Z,14.00
2018-08-17T03:00:08.606Z,14.10
2018-08-17T03:02:36.931Z,14.00
2018-08-17T03:05:05.489Z,14.10
2018-08-17T03:07:33.797Z,14.20
2018-08-17T03:10:02.158Z,14.10
2018-08-17T03:12:30.480Z,14.10
2018-08-17T03:14:58.767Z,14.10
2018-08-17T03:17:27.108Z,13.90
2018-08-17T03:19:55.427Z,14.00
2018-08-17T03:22:23.736Z,14.00
2018-08-17T03:24:52.082Z,14.00
2018-08-17T03:27:20.365Z,14.00
2018-08-17T03:29:48.719Z,13.90
2018-08-17T03:32:17.013Z,14.10
2018-08-17T03:34:45.351Z,14.00
2018-08-17T03:37:13.666Z,14.00
2018-08-17T03:39:41.954Z,13.90
2018-08-17T03:42:10.273Z,13.90
2018-08-17T03:44:39.242Z,14.00
2018-08-17T03:47:07.564Z,14.00
2018-08-17T03:49:35.873Z,14.00
2018-08-17T03:52:04.295Z,14.00
2018-08-17T03:54:32.614Z,14.00
2018-08-17T03:57:00.977Z,14.00
2018-08-17T03:59:29.268Z,13.90
2018-08-17T04:01:57.587Z,13.70
2018-08-17T04:04:25.893Z,13.70
2018-08-17T04:06:54.212Z,13.70
2018-08-17T04:09:22.528Z,13.60
2018-08-17T04:11:50.821Z,13.70
2018-08-17T04:14:19.165Z,13.70
2018-08-17T04:16:47.466Z,13.90
2018-08-17T04:19:15.783Z,14.00
2018-08-17T04:21:44.124Z,14.00
2018-08-17T04:24:15.939Z,14.10
2018-08-17T04:26:44.399Z,14.20
2018-08-17T04:29:12.713Z,14.10
2018-08-17T04:31:41.073Z,14.30
2018-08-17T04:34:09.390Z,14.40
2018-08-17T04:36:37.765Z,14.50
2018-08-17T04:39:06.811Z,14.80
2018-08-17T04:41:35.104Z,14.80
2018-08-17T04:44:03.391Z,15.00
2018-08-17T04:46:31.745Z,15.20
2018-08-17T04:49:00.142Z,15.40
2018-08-17T04:51:28.425Z,15.50
2018-08-17T04:53:56.782Z,15.50
2018-08-17T04:56:25.098Z,15.70
2018-08-17T04:58:53.433Z,15.70
2018-08-17T05:01:21.749Z,15.90
2018-08-17T05:03:50.084Z,15.90
2018-08-17T05:06:18.464Z,16.00
2018-08-17T05:08:46.815Z,16.10
2018-08-17T05:11:15.121Z,16.20
2018-08-17T05:13:43.412Z,16.40
2018-08-17T05:16:11.683Z,16.60
2018-08-17T05:18:39.995Z,16.80
2018-08-17T05:21:08.339Z,17.00
2018-08-17T05:23:36.621Z,17.00
2018-08-17T05:26:04.975Z,17.10
2018-08-17T05:28:33.338Z,17.10
2018-08-17T05:31:01.644Z,17.10
2018-08-17T05:33:29.989Z,17.00
2018-08-17T05:35:58.326Z,17.10
2018-08-17T05:38:26.788Z,17.20
2018-08-17T05:40:55.113Z,17.10
2018-08-17T05:43:23.761Z,17.10
2018-08-17T05:45:52.100Z,17.20
2018-08-17T05:48:20.419Z,17.20
2018-08-17T05:50:48.743Z,17.30
2018-08-17T05:53:17.073Z,17.30
2018-08-17T05:55:45.430Z,17.50
2018-08-17T05:58:13.765Z,17.60
2018-08-17T06:00:42.081Z,17.70
2018-08-17T06:03:10.501Z,17.80
2018-08-17T06:05:38.828Z,18.00
2018-08-17T06:08:07.141Z,18.00
2018-08-17T06:10:35.502Z,17.90
2018-08-17T06:13:03.840Z,18.00
2018-08-17T06:15:32.194Z,18.00
2018-08-17T06:18:00.509Z,18.10
2018-08-17T06:20:28.801Z,18.10
2018-08-17T06:22:57.158Z,18.20
2018-08-17T06:25:25.691Z,17.90
2018-08-17T06:27:54.061Z,17.80
2018-08-17T06:30:22.479Z,17.80
2018-08-17T06:32:50.775Z,17.80
2018-08-17T06:35:19.120Z,17.70
2018-08-17T06:37:47.431Z,17.60
2018-08-17T06:40:15.780Z,17.40
2018-08-17T06:42:44.087Z,17.30
2018-08-17T06:45:13.129Z,17.10
2018-08-17T06:47:41.459Z,17.10
2018-08-17T06:50:10.989Z,17.20
2018-08-17T06:52:40.290Z,17.10
2018-08-17T06:55:09.703Z,16.90
2018-08-17T06:57:38.519Z,16.90
2018-08-17T07:00:13.563Z,17.00
2018-08-17T07:02:42.986Z,16.90
2018-08-17T07:05:11.252Z,17.00
2018-08-17T07:07:39.709Z,17.10
2018-08-17T07:10:09.833Z,17.20
2018-08-17T07:12:38.334Z,17.30
2018-08-17T07:15:06.976Z,17.30
2018-08-17T07:17:35.522Z,17.20
2018-08-17T07:20:04.590Z,17.10
2018-08-17T07:22:32.954Z,17.10
2018-08-17T07:25:01.248Z,17.10
2018-08-17T07:27:29.602Z,17.10
2018-08-17T07:29:59.138Z,17.20
2018-08-17T07:32:27.507Z,17.30
2018-08-17T07:34:55.893Z,17.20
2018-08-17T07:37:24.241Z,17.20
2018-08-17T07:39:52.539Z,17.40
2018-08-17T07:42:20.912Z,17.40
2018-08-17T07:44:49.263Z,17.50
2018-08-17T07:47:17.686Z,17.60
2018-08-17T07:49:45.993Z,17.60
2018-08-17T07:52:14.344Z,17.50
2018-08-17T07:54:42.702Z,17.70
2018-08-17T07:57:11.050Z,17.90
2018-08-17T07:59:39.430Z,18.00
2018-08-17T08:02:07.756Z,17.90
2018-08-17T08:04:36.130Z,18.00
2018-08-17T08:07:04.492Z,18.00
2018-08-17T08:09:32.821Z,18.10
2018-08-17T08:12:01.161Z,18.20
2018-08-17T08:14:29.517Z,18.30
2018-08-17T08:16:57.878Z,18.40
2018-08-17T08:19:26.248Z,18.60
2018-08-17T08:21:54.583Z,18.50
2018-08-17T08:24:22.908Z,18.40
2018-08-17T08:26:51.230Z,18.20
2018-08-17T08:29:19.982Z,18.20
2018-08-17T08:31:48.323Z,18.20
2018-08-17T08:34:16.639Z,18.40
2018-08-17T08:36:44.996Z,18.50
2018-08-17T08:39:14.682Z,18.70
2018-08-17T08:41:43.049Z,19.20
2018-08-17T08:44:11.383Z,19.20
2018-08-17T08:46:39.777Z,19.10
2018-08-17T08:49:08.114Z,19.40
2018-08-17T08:51:36.536Z,19.90
2018-08-17T08:54:04.896Z,20.40
2018-08-17T08:56:33.293Z,21.00
2018-08-17T08:59:01.642Z,21.30
2018-08-17T09:01:30.416Z,21.00
2018-08-17T09:03:58.763Z,21.00
2018-08-17T09:06:27.080Z,20.50
2018-08-17T09:08:55.451Z,20.50
2018-08-17T09:11:23.756Z,20.60
2018-08-17T09:13:52.086Z,20.80
2018-08-17T09:16:20.435Z,21.50
2018-08-17T09:18:48.775Z,21.90
2018-08-17T09:21:17.144Z,22.50
2018-08-17T09:23:45.458Z,22.60
2018-08-17T09:26:13.794Z,22.70
2018-08-17T09:28:42.169Z,23.00
2018-08-17T09:31:10.529Z,23.20
2018-08-17T09:33:38.890Z,23.30
2018-08-17T09:36:07.569Z,23.30
2018-08-17T09:38:37.669Z,23.60
2018-08-17T09:41:06.398Z,23.70
2018-08-17T09:43:35.222Z,23.70
2018-08-17T09:46:03.621Z,23.80
2018-08-17T09:48:31.997Z,23.90
2018-08-17T09:51:00.376Z,24.00
2018-08-17T09:56:10.901Z,24.10
2018-08-17T09:58:40.458Z,24.10
2018-08-17T10:01:14.058Z,24.10
2018-08-17T10:03:44.683Z,24.30
2018-08-17T10:06:18.582Z,24.90
2018-08-17T10:08:52.375Z,25.20
2018-08-17T10:11:20.767Z,25.00
2018-08-17T10:13:49.112Z,25.10
2018-08-17T10:16:17.508Z,25.30
2018-08-17T10:18:46.221Z,25.40
2018-08-17T10:21:15.874Z,25.80
2018-08-17T10:23:44.098Z,25.60
2018-08-17T10:26:12.554Z,25.50
2018-08-17T10:28:41.657Z,25.50
2018-08-17T10:31:10.064Z,25.60
2018-08-17T10:33:38.394Z,25.80
2018-08-17T10:36:06.764Z,25.90
2018-08-17T10:38:35.125Z,25.90
2018-08-17T10:41:03.523Z,26.10
2018-08-17T10:43:32.614Z,26.40
2018-08-17T10:46:01.599Z,26.60
2018-08-17T10:48:29.953Z,26.80
2018-08-17T10:50:58.326Z,27.40
2018-08-17T10:53:30.927Z,27.10
2018-08-17T10:56:00.770Z,27.00
2018-08-17T10:58:32.525Z,26.60
2018-08-17T11:01:01.010Z,26.50
2018-08-17T11:03:29.575Z,26.20
2018-08-17T11:06:05.361Z,26.30
2018-08-17T11:08:33.715Z,26.20
2018-08-17T11:11:02.352Z,26.00
2018-08-17T11:13:30.688Z,25.90
2018-08-17T11:15:59.149Z,26.00
2018-08-17T11:18:27.541Z,26.30
2018-08-17T11:20:56.248Z,26.10
2018-08-17T11:23:24.785Z,26.10
2018-08-17T11:25:53.213Z,26.40
2018-08-17T11:28:21.637Z,27.00
2018-08-17T11:30:50.042Z,26.90
2018-08-17T11:33:23.299Z,26.90
2018-08-17T11:35:52.091Z,26.90
2018-08-17T11:38:20.494Z,26.80
2018-08-17T11:40:50.819Z,26.50
2018-08-17T11:43:19.439Z,26.60
2018-08-17T11:45:47.851Z,26.60
2018-08-17T11:48:21.738Z,26.10
2018-08-17T11:50:50.409Z,25.60
2018-08-17T11:53:18.768Z,25.20
2018-08-17T11:55:47.148Z,24.40
2018-08-17T11:58:15.507Z,24.20
2018-08-17T12:00:44.937Z,23.90
2018-08-17T12:03:13.590Z,23.30
2018-08-17T12:05:42.285Z,23.20
2018-08-17T12:08:10.732Z,23.00
2018-08-17T12:10:39.154Z,22.60
2018-08-17T12:13:12.848Z,22.30
2018-08-17T12:15:46.383Z,22.20
2018-08-17T12:18:14.779Z,22.00
2018-08-17T12:20:43.156Z,22.10
2018-08-17T12:23:11.485Z,22.10
2018-08-17T12:25:46.116Z,22.10
2018-08-17T12:28:14.444Z,22.20
2018-08-17T12:30:42.826Z,22.20
2018-08-17T12:33:12.220Z,22.10
2018-08-17T12:35:40.648Z,22.30
2018-08-17T12:38:16.897Z,22.50
2018-08-17T12:40:52.762Z,22.80
2018-08-17T12:43:24.501Z,23.00
2018-08-17T12:45:52.939Z,22.90
2018-08-17T12:48:21.335Z,22.90
2018-08-17T12:50:49.751Z,23.10
2018-08-17T12:53:18.280Z,23.20
2018-08-17T12:55:46.650Z,23.30
2018-08-17T12:58:15.507Z,23.30
2018-08-17T13:00:44.036Z,23.30
2018-08-17T13:03:12.446Z,23.20
2018-08-17T13:05:40.841Z,23.60
2018-08-17T13:08:10.376Z,24.20
2018-08-17T13:10:38.776Z,24.20
2018-08-17T13:13:08.212Z,24.20
2018-08-17T13:15:37.098Z,24.20
2018-08-17T13:18:24.478Z,24.00
2018-08-17T13:20:52.916Z,23.70
2018-08-17T13:23:21.920Z,23.70
2018-08-17T13:25:50.245Z,23.40
2018-08-17T13:28:18.679Z,23.40
2018-08-17T13:30:47.092Z,23.50
2018-08-17T13:33:15.456Z,23.50
2018-08-17T13:35:43.797Z,23.60
2018-08-17T13:38:12.144Z,23.60
2018-08-17T13:40:40.470Z,23.60
2018-08-17T13:43:08.970Z,23.50
2018-08-17T13:45:37.341Z,23.40
2018-08-17T13:48:05.869Z,23.90
2018-08-17T13:50:34.213Z,23.90
2018-08-17T13:53:02.660Z,23.80
2018-08-17T13:55:31.160Z,23.90
2018-08-17T13:57:59.464Z,25.00
2018-08-17T14:00:31.598Z,26.10
2018-08-17T14:03:01.179Z,27.50
2018-08-17T14:05:29.545Z,28.90
2018-08-17T14:07:57.878Z,29.70
2018-08-17T14:10:26.234Z,30.20
2018-08-17T14:12:54.777Z,29.70
2018-08-17T14:15:23.157Z,28.20
2018-08-17T14:17:51.486Z,27.40
2018-08-17T14:20:19.865Z,26.80
2018-08-17T14:22:48.208Z,25.70
2018-08-17T14:25:16.567Z,26.10
2018-08-17T14:27:44.930Z,26.30
2018-08-17T14:30:17.764Z,25.90
2018-08-17T14:32:46.125Z,25.00
2018-08-17T14:35:14.823Z,24.30
2018-08-17T14:37:43.231Z,24.00
2018-08-17T14:40:12.693Z,24.10
2018-08-17T14:42:41.342Z,24.50
2018-08-17T14:45:10.284Z,24.90
2018-08-17T14:47:38.850Z,25.10
2018-08-17T14:50:09.301Z,25.30
2018-08-17T14:52:37.735Z,25.10
2018-08-17T14:55:06.508Z,25.10
2018-08-17T14:57:34.920Z,24.90
2018-08-17T15:00:03.447Z,25.30
2018-08-17T15:02:31.836Z,25.70
2018-08-17T15:05:00.222Z,25.70
2018-08-17T15:07:28.566Z,26.10
2018-08-17T15:09:56.915Z,26.90
2018-08-17T15:12:36.830Z,27.80
2018-08-17T15:15:05.483Z,28.40
2018-08-17T15:17:40.551Z,26.60
2018-08-17T15:20:10.136Z,25.00
2018-08-17T15:22:41.847Z,23.60
2018-08-17T15:25:10.249Z,23.20
2018-08-17T15:27:38.649Z,23.40
2018-08-17T15:30:08.775Z,24.10
2018-08-17T15:32:37.152Z,24.70
2018-08-17T15:35:05.648Z,25.20
2018-08-17T15:37:34.081Z,24.90
2018-08-17T15:40:02.420Z,25.50
2018-08-17T15:42:30.748Z,24.80
2018-08-17T15:44:59.099Z,23.50
2018-08-17T15:47:27.486Z,22.50
2018-08-17T15:50:27.677Z,22.40
2018-08-17T15:52:56.003Z,22.60
2018-08-17T15:55:24.386Z,24.10
2018-08-17T15:57:52.900Z,24.60
2018-08-17T16:00:21.191Z,25.10
2018-08-17T16:02:49.615Z,25.90
2018-08-17T16:05:17.947Z,26.00
2018-08-17T16:07:46.346Z,25.90
2018-08-17T16:10:15.878Z,25.50
2018-08-17T16:12:44.789Z,25.10
2018-08-17T16:15:13.171Z,24.70
2018-08-17T16:17:41.519Z,25.10
2018-08-17T16:20:11.214Z,24.40
2018-08-17T16:22:40.014Z,23.30
2018-08-17T16:25:09.196Z,23.10
2018-08-17T16:27:37.592Z,23.00
2018-08-17T16:30:07.367Z,23.30
2018-08-17T16:32:35.705Z,23.20
2018-08-17T16:35:04.277Z,23.10
2018-08-17T16:37:32.770Z,23.50
2018-08-17T16:40:01.031Z,23.40
2018-08-17T16:42:34.491Z,23.40
2018-08-17T16:45:03.224Z,22.40
2018-08-17T16:47:31.768Z,21.40
2018-08-17T16:50:00.150Z,20.80
2018-08-17T16:52:35.077Z,20.40
2018-08-17T16:55:03.678Z,20.80
2018-08-17T16:57:32.052Z,21.40
2018-08-17T17:00:00.425Z,22.00
2018-08-17T17:02:28.827Z,22.20
2018-08-17T17:04:57.195Z,22.60
2018-08-17T17:07:30.293Z,21.90
2018-08-17T17:09:58.875Z,21.70
2018-08-17T17:12:27.332Z,21.40
2018-08-17T17:15:07.117Z,21.70
2018-08-17T17:17:36.034Z,21.60
2018-08-17T17:20:05.705Z,21.30
2018-08-17T17:22:36.536Z,20.90
2018-08-17T17:25:19.487Z,20.70
2018-08-17T17:27:48.941Z,20.40
2018-08-17T17:30:18.307Z,20.10
2018-08-17T17:32:47.625Z,20.10
2018-08-17T17:37:57.050Z,19.90
2018-08-17T17:40:25.471Z,19.90
2018-08-17T17:42:53.906Z,19.80
2018-08-17T17:45:22.286Z,19.80
2018-08-17T17:47:50.727Z,19.70
2018-08-17T17:50:19.052Z,19.50
2018-08-17T17:52:47.429Z,19.40
2018-08-17T17:55:15.815Z,19.20
2018-08-17T17:57:45.674Z,19.10
2018-08-17T18:00:14.101Z,18.90
2018-08-17T18:02:42.506Z,18.90
2018-08-17T18:05:11.034Z,18.90
2018-08-17T18:07:44.457Z,18.90
2018-08-17T18:10:12.897Z,18.90
2018-08-17T18:12:41.239Z,18.80
2018-08-17T18:15:09.641Z,18.80
2018-08-17T18:17:38.047Z,18.80
2018-08-17T18:20:06.503Z,18.70
2018-08-17T18:22:34.937Z,18.60
2018-08-17T18:25:07.541Z,18.50
2018-08-17T18:27:36.145Z,18.60
2018-08-17T18:30:05.290Z,18.60
2018-08-17T18:32:33.714Z,18.50
2018-08-17T18:35:02.137Z,18.60
2018-08-17T18:37:30.560Z,18.50
2018-08-17T18:39:58.979Z,18.50
2018-08-17T18:42:27.396Z,18.50
2018-08-17T18:44:55.796Z,18.50
2018-08-17T18:47:24.194Z,18.40
2018-08-17T18:49:52.607Z,18.20
2018-08-17T18:52:20.993Z,18.20
2018-08-17T18:54:49.450Z,18.20
2018-08-17T18:57:17.871Z,18.10
2018-08-17T18:59:46.315Z,18.20
2018-08-17T19:02:14.711Z,18.10
2018-08-17T19:04:43.533Z,17.90
2018-08-17T19:07:11.912Z,17.90
2018-08-17T19:09:40.897Z,17.80
2018-08-17T19:12:11.347Z,17.80
2018-08-17T19:14:44.789Z,17.80
2018-08-17T19:17:18.526Z,17.80
2018-08-17T19:19:46.893Z,17.80
2018-08-17T19:22:15.319Z,17.70
2018-08-17T19:24:43.733Z,17.60
2018-08-17T19:27:21.479Z,17.60
2018-08-17T19:29:50.806Z,17.60
2018-08-17T19:32:19.327Z,17.60
2018-08-17T19:34:47.727Z,17.60
2018-08-17T19:37:16.145Z,17.50
2018-08-17T19:39:46.127Z,17.50
2018-08-17T19:42:15.362Z,17.50
2018-08-17T19:44:43.757Z,17.60
2018-08-17T19:47:12.143Z,17.40
2018-08-17T19:49:40.546Z,17.50
2018-08-17T19:52:08.932Z,17.50
2018-08-17T19:54:37.389Z,17.40
2018-08-17T19:57:06.042Z,17.40
2018-08-17T19:59:35.736Z,17.40
2018-08-17T20:02:05.837Z,17.30
2018-08-17T20:04:35.078Z,17.30
2018-08-17T20:07:06.139Z,17.40
2018-08-17T20:09:35.456Z,17.20
2018-08-17T20:12:04.057Z,17.10
2018-08-17T20:14:32.936Z,17.10
2018-08-17T20:17:01.796Z,17.00
2018-08-17T20:19:36.989Z,17.00
2018-08-17T20:22:09.951Z,17.00
2018-08-17T20:24:38.366Z,16.90
2018-08-17T20:27:06.790Z,16.90
2018-08-17T20:29:35.443Z,16.80
2018-08-17T20:32:04.014Z,16.80
2018-08-17T20:34:34.811Z,16.80
2018-08-17T20:37:03.199Z,16.80
2018-08-17T20:39:31.595Z,16.70
2018-08-17T20:42:01.137Z,16.60
2018-08-17T20:44:30.429Z,16.60
2018-08-17T20:46:58.815Z,16.70
2018-08-17T20:49:27.218Z,16.60
2018-08-17T20:51:59.040Z,16.60
2018-08-17T20:54:28.272Z,16.60
2018-08-17T20:56:56.713Z,16.50
2018-08-17T20:59:25.161Z,16.50
2018-08-17T21:01:53.877Z,16.50
2018-08-17T21:04:22.421Z,16.40
2018-08-17T21:06:50.749Z,16.40
2018-08-17T21:09:19.237Z,16.30
2018-08-17T21:11:48.176Z,16.20
2018-08-17T21:14:18.161Z,16.20
2018-08-17T21:16:46.598Z,16.20
2018-08-17T21:19:15.029Z,16.20
2018-08-17T21:21:43.426Z,16.10
2018-08-17T21:24:11.816Z,16.10
2018-08-17T21:26:40.614Z,16.00
2018-08-17T21:29:09.823Z,16.00
2018-08-17T21:31:38.224Z,16.00
2018-08-17T21:34:06.655Z,16.00
2018-08-17T21:36:35.054Z,15.90
2018-08-17T21:39:12.221Z,15.80
2018-08-17T21:41:42.529Z,15.80
2018-08-17T21:44:14.850Z,15.80
2018-08-17T21:46:49.530Z,15.70
2018-08-17T21:49:18.717Z,15.70
2018-08-17T21:52:01.170Z,15.60
2018-08-17T21:54:31.104Z,15.70
2018-08-17T21:57:00.338Z,15.50
2018-08-17T21:59:38.031Z,15.50
2018-08-17T22:02:08.740Z,15.40
2018-08-17T22:04:37.145Z,15.50
2018-08-17T22:07:39.278Z,15.50
2018-08-17T22:10:08.167Z,15.40
2018-08-17T22:12:36.562Z,15.30
2018-08-17T22:15:08.247Z,15.30
2018-08-17T22:17:38.518Z,15.30
2018-08-17T22:20:08.725Z,15.30
2018-08-17T22:22:39.651Z,15.20
2018-08-17T22:25:13.315Z,15.20
2018-08-17T22:27:41.667Z,15.20
2018-08-17T22:30:17.417Z,15.20
2018-08-17T22:32:45.711Z,15.20
2018-08-17T22:35:14.146Z,15.10
2018-08-17T22:37:42.502Z,15.00
2018-08-17T22:40:10.862Z,15.10
2018-08-17T22:42:39.358Z,15.10
2018-08-17T22:45:07.657Z,15.00
2018-08-17T22:47:36.056Z,15.00
2018-08-17T22:50:04.715Z,15.00
2018-08-17T22:52:34.161Z,15.00
2018-08-17T22:55:04.226Z,14.90
2018-08-17T22:57:32.996Z,14.80
2018-08-17T23:00:13.757Z,14.80
2018-08-17T23:02:43.305Z,14.70
2018-08-17T23:05:13.326Z,14.70
2018-08-17T23:07:41.702Z,14.60
2018-08-17T23:10:12.284Z,14.60
2018-08-17T23:12:40.744Z,14.60
2018-08-17T23:15:10.049Z,14.60
2018-08-17T23:17:38.797Z,14.70
2018-08-17T23:20:08.544Z,14.70
2018-08-17T23:22:45.649Z,14.70
2018-08-17T23:25:14.333Z,14.70
2018-08-17T23:27:42.774Z,14.60
2018-08-17T23:30:11.211Z,14.70
2018-08-17T23:32:39.578Z,14.60
2018-08-17T23:35:09.420Z,14.60
2018-08-17T23:37:38.261Z,14.60
2018-08-17T23:40:10.698Z,14.50
2018-08-17T23:42:39.063Z,14.40
2018-08-17T23:45:10.236Z,14.40
2018-08-17T23:47:38.586Z,14.40
2018-08-17T23:50:08.477Z,14.20
2018-08-17T23:52:36.844Z,14.20
2018-08-17T23:55:05.787Z,14.20
2018-08-17T23:57:34.775Z,14.10
